Time;durP1;ratioP1;P1;durP2;ratioP2;P2;SDS_P1;SDS_P2;PMS_P1;PMS_P2;Temp;Humidity;BMP_temperature;BMP_pressure;BME280_temperature;BME280_humidity;BME280_pressure;Samples;Min_cycle;Max_cycle;Signal;HPM_P1;HPM_P2
2022/12/14 00:01:08;;;;;;;2.50;1.30;;;1.10;35.10;;;;;;5032324;28;20559;-72
2022/12/14 00:03:33;;;;;;;2.30;1.10;;;1.00;35.20;;;;;;5032343;28;20183;-71
2022/12/14 00:05:59;;;;;;;2.30;1.10;;;1.00;35.50;;;;;;5032168;28;20189;-72
2022/12/14 00:08:25;;;;;;;4.10;2.03;;;1.40;34.70;;;;;;5032343;28;20236;-72
2022/12/14 00:10:52;;;;;;;2.40;1.30;;;1.60;34.50;;;;;;5032387;28;20173;-72
2022/12/14 00:13:18;;;;;;;2.40;1.27;;;1.80;33.10;;;;;;5031129;28;20216;-72
2022/12/14 00:15:44;;;;;;;2.50;1.40;;;1.70;33.40;;;;;;5031908;28;20228;-72
2022/12/14 00:18:10;;;;;;;3.67;1.80;;;1.50;33.80;;;;;;5032384;28;20658;-72
2022/12/14 00:20:36;;;;;;;3.03;1.58;;;1.90;32.60;;;;;;5032254;28;20634;-72
2022/12/14 00:23:03;;;;;;;2.60;1.40;;;1.80;32.60;;;;;;5031924;28;20207;-72
2022/12/14 00:25:29;;;;;;;2.55;1.40;;;1.90;32.60;;;;;;5032080;28;20196;-72
2022/12/14 00:27:54;;;;;;;2.50;1.30;;;1.90;32.60;;;;;;5032013;28;20208;-72
2022/12/14 00:30:20;;;;;;;2.40;1.30;;;1.80;32.60;;;;;;5032193;28;20470;-72
2022/12/14 00:32:46;;;;;;;2.80;1.60;;;1.40;32.90;;;;;;5031488;28;20667;-72
2022/12/14 00:35:15;;;;;;;2.53;1.20;;;1.00;34.40;;;;;;5031730;28;20691;-72
2022/12/14 00:37:42;;;;;;;4.95;2.08;;;1.40;34.50;;;;;;5031987;28;20248;-72
2022/12/14 00:40:08;;;;;;;2.30;1.10;;;1.80;32.70;;;;;;5031670;28;20180;-72
2022/12/14 00:42:34;;;;;;;2.63;1.60;;;1.80;33.00;;;;;;5031673;28;20203;-73
2022/12/14 00:45:01;;;;;;;2.95;1.60;;;1.40;34.00;;;;;;5031971;28;20199;-72
2022/12/14 00:47:27;;;;;;;2.30;1.13;;;1.50;33.90;;;;;;5031670;28;20632;-73
2022/12/14 00:49:53;;;;;;;2.30;1.10;;;1.70;33.20;;;;;;5032086;28;20209;-72
2022/12/14 00:52:18;;;;;;;2.57;1.50;;;1.60;32.90;;;;;;5031906;28;20176;-73
2022/12/14 00:54:44;;;;;;;2.33;1.13;;;1.50;33.60;;;;;;5031855;28;20164;-73
2022/12/14 00:57:10;;;;;;;2.40;1.20;;;1.50;33.80;;;;;;5031814;28;20222;-73
2022/12/14 00:59:35;;;;;;;2.30;1.13;;;1.30;34.10;;;;;;5032268;28;20177;-72
2022/12/14 01:02:01;;;;;;;3.63;1.90;;;1.30;34.00;;;;;;5031729;28;20589;-72
2022/12/14 01:04:27;;;;;;;3.27;1.80;;;1.30;34.30;;;;;;5031673;28;20180;-72
2022/12/14 01:06:54;;;;;;;3.25;1.95;;;3.90;36.10;;;;;;5031779;28;20196;-72
2022/12/14 01:09:21;;;;;;;2.30;1.10;;;2.00;31.60;;;;;;5031546;28;20659;-72
2022/12/14 01:11:47;;;;;;;2.30;1.10;;;2.10;32.00;;;;;;5031592;28;20199;-71
2022/12/14 01:14:16;;;;;;;2.20;1.10;;;2.60;31.10;;;;;;5031630;28;20260;-74
2022/12/14 01:16:42;;;;;;;2.97;1.83;;;2.40;31.20;;;;;;5031688;28;20482;-72
2022/12/14 01:19:07;;;;;;;2.40;1.40;;;2.70;30.60;;;;;;5031536;28;20208;-72
2022/12/14 01:21:33;;;;;;;2.20;1.07;;;2.80;30.60;;;;;;5031580;28;20644;-73
2022/12/14 01:24:01;;;;;;;2.30;1.20;;;2.80;30.50;;;;;;5031514;28;20176;-73
2022/12/14 01:26:29;;;;;;;4.60;1.58;;;2.60;31.70;;;;;;5031746;28;20468;-74
2022/12/14 01:28:57;;;;;;;6.85;3.35;;;2.40;31.00;;;;;;5031923;28;20211;-73
2022/12/14 01:31:30;;;;;;;3.78;1.60;;;2.50;31.30;;;;;;5031790;28;20180;-73
2022/12/14 01:33:56;;;;;;;3.08;1.52;;;2.30;31.50;;;;;;5031401;28;20270;-74
2022/12/14 01:36:24;;;;;;;2.40;1.30;;;2.20;32.40;;;;;;5031506;28;20204;-72
2022/12/14 01:38:55;;;;;;;3.53;1.95;;;2.40;32.20;;;;;;5031586;28;20264;-72
2022/12/14 01:41:34;;;;;;;4.82;3.17;;;2.80;31.70;;;;;;5039845;28;20181;-71
2022/12/14 01:44:03;;;;;;;3.10;1.75;;;2.60;31.90;;;;;;5034807;28;20199;-72
2022/12/14 01:46:44;;;;;;;2.50;1.38;;;2.50;32.10;;;;;;5031068;28;20204;-72
2022/12/14 01:49:38;;;;;;;2.20;1.10;;;2.40;31.70;;;;;;5031370;28;20624;-72
2022/12/14 01:52:20;;;;;;;2.30;1.10;;;2.60;31.80;;;;;;5031348;28;20177;-73
2022/12/14 01:55:09;;;;;;;3.30;1.73;;;2.40;31.60;;;;;;5031288;28;20549;-73
2022/12/14 01:57:47;;;;;;;2.40;1.30;;;2.20;32.40;;;;;;5031483;28;20192;-73
2022/12/14 02:00:13;;;;;;;2.65;1.48;;;2.10;33.00;;;;;;5032243;28;20523;-72
2022/12/14 02:03:03;;;;;;;2.50;1.40;;;2.10;32.60;;;;;;5038680;28;20195;-73
2022/12/14 02:05:29;;;;;;;2.60;1.40;;;2.00;32.70;;;;;;5033891;28;20650;-72
2022/12/14 02:07:56;;;;;;;2.30;1.20;;;2.10;33.50;;;;;;5034784;28;20576;-72
2022/12/14 02:10:25;;;;;;;2.50;1.38;;;1.90;33.30;;;;;;5034713;28;20169;-72
2022/12/14 02:12:58;;;;;;;2.42;1.20;;;1.90;33.70;;;;;;5034813;28;20176;-72
2022/12/14 02:15:23;;;;;;;2.75;1.48;;;1.70;34.50;;;;;;5034526;28;20204;-72
2022/12/14 02:17:50;;;;;;;2.40;1.30;;;1.90;34.20;;;;;;5034791;28;20188;-72
2022/12/14 02:20:16;;;;;;;2.70;1.50;;;1.90;34.40;;;;;;5034334;28;20943;-72
2022/12/14 02:23:13;;;;;;;3.47;1.58;;;2.00;33.90;;;;;;5034954;28;20260;-72
2022/12/14 02:25:50;;;;;;;3.17;1.73;;;2.00;34.10;;;;;;5034544;28;20185;-73
2022/12/14 02:28:31;;;;;;;3.05;1.83;;;2.20;33.70;;;;;;5034642;28;20231;-72
2022/12/14 02:31:10;;;;;;;3.17;1.90;;;2.10;34.00;;;;;;5034510;28;20643;-72
2022/12/14 02:33:57;;;;;;;2.50;1.40;;;2.30;33.70;;;;;;5034278;28;20160;-73
2022/12/14 02:36:44;;;;;;;2.97;1.70;;;2.30;33.20;;;;;;5033909;28;20224;-72
2022/12/14 02:39:48;;;;;;;2.88;1.85;;;2.60;33.30;;;;;;5034896;28;20647;-72
2022/12/14 02:42:22;;;;;;;2.40;1.30;;;2.10;34.00;;;;;;5019777;28;20321;-72
2022/12/14 02:45:07;;;;;;;3.35;2.28;;;2.30;34.40;;;;;;5034234;28;20161;-72
2022/12/14 02:47:45;;;;;;;2.20;1.20;;;2.70;33.80;;;;;;5034017;28;20161;-73
2022/12/14 02:50:20;;;;;;;2.30;1.25;;;2.70;33.70;;;;;;5034195;28;20181;-72
2022/12/14 02:52:51;;;;;;;2.40;1.30;;;2.60;34.60;;;;;;5033668;28;20179;-72
2022/12/14 02:55:34;;;;;;;2.20;1.15;;;2.60;34.70;;;;;;5033882;28;20193;-72
2022/12/14 02:58:13;;;;;;;2.30;1.23;;;2.20;35.90;;;;;;5034120;28;20222;-72
2022/12/14 03:00:39;;;;;;;2.30;1.30;;;2.60;35.70;;;;;;5016128;28;20226;-72
2022/12/14 03:03:05;;;;;;;2.25;1.15;;;2.30;35.80;;;;;;5015722;28;20193;-72
2022/12/14 03:05:32;;;;;;;2.38;1.38;;;2.10;36.40;;;;;;5033365;28;20208;-72
2022/12/14 03:08:10;;;;;;;2.70;1.55;;;2.10;37.70;;;;;;5033665;28;20211;-73
2022/12/14 03:10:49;;;;;;;2.40;1.30;;;2.10;37.70;;;;;;5033660;28;20173;-72
2022/12/14 03:13:23;;;;;;;2.60;1.48;;;1.90;38.40;;;;;;5033559;28;20251;-72
2022/12/14 03:16:07;;;;;;;2.30;1.20;;;1.90;38.00;;;;;;5033149;28;20254;-72
2022/12/14 03:18:45;;;;;;;2.80;1.45;;;1.80;37.60;;;;;;5033535;28;20176;-72
2022/12/14 03:21:15;;;;;;;3.05;1.65;;;2.10;37.40;;;;;;5033438;28;20530;-72
2022/12/14 03:23:47;;;;;;;3.40;1.48;;;2.10;36.90;;;;;;5033330;28;20192;-72
2022/12/14 03:26:27;;;;;;;2.40;1.33;;;2.00;37.60;;;;;;5033376;28;20223;-72
2022/12/14 03:28:59;;;;;;;2.53;1.38;;;2.30;36.80;;;;;;5033054;28;20203;-72
2022/12/14 03:31:32;;;;;;;3.30;1.85;;;2.40;36.90;;;;;;5033330;28;20168;-72
2022/12/14 03:34:01;;;;;;;2.45;1.55;;;2.60;36.20;;;;;;5036101;28;20157;-72
2022/12/14 03:36:55;;;;;;;2.88;1.98;;;2.50;35.80;;;;;;5032806;28;20283;-72
2022/12/14 03:39:27;;;;;;;3.75;2.05;;;2.70;36.60;;;;;;5025498;28;20723;-72
2022/12/14 03:42:09;;;;;;;3.03;1.85;;;2.40;36.30;;;;;;5032690;28;20182;-72
2022/12/14 03:44:59;;;;;;;2.55;1.55;;;2.30;36.40;;;;;;5032955;28;20238;-72
2022/12/14 03:47:30;;;;;;;2.20;1.13;;;2.40;36.30;;;;;;5033073;28;20679;-72
2022/12/14 03:50:02;;;;;;;2.30;1.52;;;2.40;35.80;;;;;;5032947;28;20275;-72
2022/12/14 03:52:54;;;;;;;2.72;1.30;;;2.20;37.00;;;;;;5032741;28;20157;-72
2022/12/14 03:55:22;;;;;;;3.30;1.80;;;2.30;36.20;;;;;;5032839;28;20585;-72
2022/12/14 03:58:18;;;;;;;2.20;1.10;;;2.60;35.20;;;;;;5032885;28;20196;-72
2022/12/14 04:01:08;;;;;;;2.40;1.35;;;2.70;34.50;;;;;;5032913;28;20168;-71
2022/12/14 04:03:57;;;;;;;2.50;1.50;;;2.80;34.10;;;;;;5032321;28;20165;-72
2022/12/14 04:06:26;;;;;;;3.38;1.92;;;2.60;35.00;;;;;;5032190;28;20196;-72
2022/12/14 04:09:19;;;;;;;2.13;1.10;;;2.70;34.30;;;;;;5032505;28;20354;-71
2022/12/14 04:20:34;;;;;;;2.10;1.10;;;2.70;34.20;;;;;;5032532;28;20167;-72
2022/12/14 04:23:11;;;;;;;2.42;1.40;;;2.70;34.10;;;;;;5031599;28;20590;-71
2022/12/14 04:31:21;;;;;;;2.20;1.23;;;2.90;34.40;;;;;;5032440;28;20223;-72
2022/12/14 04:33:53;;;;;;;2.50;1.50;;;3.20;33.50;;;;;;5031865;28;20222;-72
2022/12/14 04:36:37;;;;;;;2.20;1.13;;;3.20;33.40;;;;;;5031656;28;20632;-72
2022/12/14 04:39:07;;;;;;;2.40;1.40;;;3.40;32.70;;;;;;5032436;28;20172;-73
2022/12/14 04:41:36;;;;;;;2.17;1.10;;;3.60;32.30;;;;;;5031946;28;20247;-72
2022/12/14 04:44:08;;;;;;;2.50;1.55;;;3.80;32.50;;;;;;5031925;28;20180;-73
2022/12/14 04:46:36;;;;;;;3.95;1.55;;;3.80;32.00;;;;;;5031826;28;20668;-72
2022/12/14 04:49:08;;;;;;;3.17;1.42;;;3.90;32.10;;;;;;5031907;28;20208;-72
2022/12/14 04:51:57;;;;;;;3.75;1.70;;;3.90;32.20;;;;;;5031872;28;20153;-72
2022/12/14 04:54:37;;;;;;;2.10;1.10;;;3.90;32.50;;;;;;5031623;28;20667;-72
2022/12/14 04:57:08;;;;;;;2.72;1.58;;;3.80;32.90;;;;;;5078436;22;20226;-71
2022/12/14 04:59:35;;;;;;;5.13;2.95;;;3.40;33.80;;;;;;5063559;28;20184;-71
2022/12/14 05:02:38;;;;;;;4.32;2.08;;;3.30;34.90;;;;;;5050968;28;20176;-72
2022/12/14 05:05:11;;;;;;;2.85;1.77;;;3.40;34.70;;;;;;5029737;28;20676;-72
2022/12/14 05:08:01;;;;;;;2.50;1.50;;;3.60;34.30;;;;;;5051399;28;20226;-72
2022/12/14 05:10:44;;;;;;;4.28;1.80;;;3.40;34.30;;;;;;5049032;28;20187;-72
2022/12/14 05:13:18;;;;;;;2.88;1.58;;;3.10;35.50;;;;;;5030640;28;20183;-72
2022/12/14 05:15:50;;;;;;;2.20;1.20;;;3.40;34.50;;;;;;5050789;28;20172;-71
2022/12/14 05:18:16;;;;;;;2.45;1.45;;;3.50;34.20;;;;;;5051170;28;20195;-72
2022/12/14 05:20:42;;;;;;;4.00;2.13;;;3.70;33.90;;;;;;5051201;28;20187;-72
2022/12/14 05:23:08;;;;;;;2.50;1.40;;;4.40;33.40;;;;;;5051088;28;20171;-72
2022/12/14 05:25:34;;;;;;;3.38;1.98;;;4.00;33.00;;;;;;5050996;28;20422;-71
2022/12/14 05:27:59;;;;;;;4.77;2.40;;;3.80;33.20;;;;;;5050314;28;20192;-71
2022/12/14 05:30:25;;;;;;;3.33;1.77;;;3.50;33.70;;;;;;5051402;28;20429;-72
2022/12/14 05:32:51;;;;;;;2.83;1.70;;;3.50;34.50;;;;;;5050823;28;20251;-71
2022/12/14 05:35:17;;;;;;;2.20;1.30;;;3.40;34.30;;;;;;5034205;28;20179;-72
2022/12/14 05:37:43;;;;;;;2.40;1.47;;;3.90;33.90;;;;;;5055032;28;20199;-71
2022/12/14 05:40:09;;;;;;;2.17;1.23;;;4.00;33.40;;;;;;5054809;28;20180;-71
2022/12/14 05:42:34;;;;;;;2.83;1.55;;;4.10;32.90;;;;;;5054675;28;20647;-69
2022/12/14 05:45:00;;;;;;;2.33;1.10;;;4.20;33.20;;;;;;5054754;28;20215;-70
2022/12/14 05:47:26;;;;;;;2.60;1.50;;;3.80;33.60;;;;;;5036936;28;20203;-71
2022/12/14 05:49:52;;;;;;;2.63;1.67;;;4.10;33.40;;;;;;5054675;28;20396;-70
2022/12/14 05:52:18;;;;;;;2.70;1.70;;;3.50;34.20;;;;;;5053557;28;20456;-70
2022/12/14 05:54:44;;;;;;;2.75;1.55;;;3.30;34.60;;;;;;5052903;28;20406;-72
2022/12/14 05:57:09;;;;;;;2.00;1.23;;;3.10;35.20;;;;;;5052698;28;20208;-71
2022/12/14 05:59:35;;;;;;;2.07;1.10;;;3.40;35.10;;;;;;5054715;28;20179;-72
2022/12/14 06:02:01;;;;;;;3.57;1.67;;;3.70;34.30;;;;;;5054371;28;20418;-69
2022/12/14 06:04:26;;;;;;;2.10;1.20;;;4.00;33.40;;;;;;5054240;28;20176;-69
2022/12/14 06:06:52;;;;;;;2.10;1.13;;;3.90;33.50;;;;;;5054585;28;20749;-69
2022/12/14 06:09:18;;;;;;;2.47;1.47;;;3.90;33.40;;;;;;5055133;28;20527;-69
2022/12/14 06:11:45;;;;;;;2.30;1.25;;;3.60;34.30;;;;;;5054076;28;20251;-70
2022/12/14 06:14:12;;;;;;;2.10;1.10;;;4.00;33.30;;;;;;5054192;28;20204;-70
2022/12/14 06:16:43;;;;;;;2.10;1.13;;;4.10;33.30;;;;;;5036291;28;20192;-70
2022/12/14 06:19:09;;;;;;;2.97;2.17;;;3.50;33.60;;;;;;5054386;28;20191;-69
2022/12/14 06:21:37;;;;;;;2.67;1.50;;;3.40;34.00;;;;;;5054207;28;20639;-70
2022/12/14 06:24:04;;;;;;;2.78;1.65;;;3.40;33.90;;;;;;5053894;28;20263;-70
2022/12/14 06:26:31;;;;;;;2.40;1.50;;;3.40;34.30;;;;;;5054140;28;20206;-69
2022/12/14 06:28:57;;;;;;;3.42;1.95;;;3.20;34.70;;;;;;5054224;28;20211;-70
2022/12/14 06:31:29;;;;;;;2.85;1.33;;;3.10;34.60;;;;;;5054018;28;20256;-70
2022/12/14 06:33:58;;;;;;;4.13;1.55;;;3.20;34.30;;;;;;5053870;28;20167;-70
2022/12/14 06:36:26;;;;;;;2.50;1.30;;;3.70;33.80;;;;;;5059088;28;20191;-70
2022/12/14 06:38:53;;;;;;;2.97;1.85;;;3.80;33.40;;;;;;5054209;28;20666;-70
2022/12/14 06:41:20;;;;;;;6.00;4.10;;;3.80;33.40;;;;;;5063156;28;20630;-70
2022/12/14 06:43:46;;;;;;;2.40;1.40;;;4.00;32.60;;;;;;5063896;28;20708;-71
2022/12/14 06:46:14;;;;;;;2.40;1.30;;;3.40;33.80;;;;;;5063746;28;20176;-69
2022/12/14 06:48:40;;;;;;;2.20;1.10;;;3.30;34.50;;;;;;5054714;28;20238;-70
2022/12/14 06:51:08;;;;;;;5.32;1.85;;;2.10;37.90;;;;;;5053802;28;20255;-70
2022/12/14 06:53:34;;;;;;;2.97;1.45;;;1.90;38.70;;;;;;5054601;28;20320;-70
2022/12/14 06:56:15;;;;;;;2.20;1.20;;;1.70;39.50;;;;;;5054014;28;20211;-70
2022/12/14 06:58:41;;;;;;;3.15;1.50;;;1.50;40.80;;;;;;5053709;28;20250;-70
2022/12/14 07:01:12;;;;;;;2.80;1.60;;;1.90;39.90;;;;;;5053862;28;20176;-70
2022/12/14 07:03:38;;;;;;;2.47;1.55;;;2.70;37.90;;;;;;5053500;28;20164;-68
2022/12/14 07:06:05;;;;;;;2.20;1.10;;;3.20;36.30;;;;;;5053421;28;20560;-70
2022/12/14 07:08:33;;;;;;;2.33;1.30;;;3.60;35.10;;;;;;5053940;28;20198;-71
2022/12/14 07:11:04;;;;;;;2.40;1.30;;;4.10;33.80;;;;;;5054345;28;20172;-71
2022/12/14 07:13:30;;;;;;;4.05;2.75;;;4.20;33.30;;;;;;5055620;28;20176;-71
2022/12/14 07:15:57;;;;;;;2.30;1.30;;;4.10;33.10;;;;;;5054642;28;20179;-71
2022/12/14 07:18:23;;;;;;;2.50;1.42;;;3.70;34.50;;;;;;5053929;28;20488;-72
2022/12/14 07:20:55;;;;;;;2.27;1.27;;;3.50;34.70;;;;;;5053473;28;20647;-72
2022/12/14 07:23:20;;;;;;;2.15;1.15;;;3.30;35.10;;;;;;5053451;28;20933;-71
2022/12/14 07:25:46;;;;;;;2.20;1.10;;;3.30;35.30;;;;;;5053627;28;20176;-72
2022/12/14 07:28:11;;;;;;;2.10;1.00;;;3.50;35.50;;;;;;5053256;28;20788;-70
2022/12/14 07:30:37;;;;;;;2.87;1.33;;;3.80;34.10;;;;;;5053534;28;20183;-69
2022/12/14 07:33:03;;;;;;;2.10;1.10;;;3.90;33.70;;;;;;5052916;28;20172;-70
2022/12/14 07:35:28;;;;;;;2.10;1.10;;;3.40;34.90;;;;;;5053313;28;20180;-71
2022/12/14 07:37:54;;;;;;;2.50;1.40;;;3.10;35.90;;;;;;5053308;28;20188;-70
2022/12/14 07:40:20;;;;;;;2.57;1.53;;;3.20;36.20;;;;;;5053074;28;20184;-71
2022/12/14 07:42:48;;;;;;;2.40;1.30;;;3.70;35.40;;;;;;5052980;28;20251;-71
2022/12/14 07:45:14;;;;;;;3.08;2.20;;;3.90;34.70;;;;;;5053005;28;20187;-71
2022/12/14 07:47:39;;;;;;;2.93;1.73;;;3.80;34.70;;;;;;5052830;28;20667;-70
2022/12/14 07:50:06;;;;;;;3.40;2.10;;;4.10;34.60;;;;;;5060118;28;20200;-70
2022/12/14 07:52:31;;;;;;;3.20;2.17;;;4.10;33.80;;;;;;5060584;28;20168;-69
2022/12/14 07:54:57;;;;;;;2.13;1.10;;;4.00;34.10;;;;;;5060563;28;20569;-71
2022/12/14 07:57:22;;;;;;;2.50;1.30;;;3.90;34.20;;;;;;5057166;28;20635;-70
2022/12/14 07:59:48;;;;;;;2.67;1.60;;;4.00;33.70;;;;;;5052795;28;20187;-70
2022/12/14 08:02:14;;;;;;;5.33;2.33;;;3.80;34.50;;;;;;5053004;28;20194;-71
2022/12/14 08:04:39;;;;;;;3.70;1.93;;;3.60;35.30;;;;;;5052244;28;20183;-70
2022/12/14 08:07:05;;;;;;;2.30;1.30;;;3.50;35.70;;;;;;5054196;28;20283;-71
2022/12/14 08:09:30;;;;;;;2.60;1.37;;;3.50;36.40;;;;;;5052905;28;20203;-70
2022/12/14 08:11:57;;;;;;;2.10;1.10;;;3.70;36.40;;;;;;5052410;28;20180;-71
2022/12/14 08:14:22;;;;;;;3.53;1.75;;;3.90;36.50;;;;;;5052232;28;20172;-70
2022/12/14 08:16:49;;;;;;;4.63;2.00;;;4.10;35.60;;;;;;5034359;28;20636;-70
2022/12/14 08:19:15;;;;;;;2.67;1.58;;;4.20;37.50;;;;;;5052149;28;20259;-71
2022/12/14 08:21:41;;;;;;;3.30;1.95;;;4.30;36.20;;;;;;5052021;28;20657;-70
2022/12/14 08:24:09;;;;;;;2.20;1.30;;;4.20;36.60;;;;;;5051976;28;20262;-71
2022/12/14 08:26:35;;;;;;;9.93;3.38;;;4.20;36.80;;;;;;5051702;28;20445;-71
2022/12/14 08:29:01;;;;;;;2.30;1.33;;;4.20;36.80;;;;;;5051497;28;20290;-70
2022/12/14 08:31:27;;;;;;;2.00;1.10;;;4.30;37.20;;;;;;5051978;28;20172;-71
2022/12/14 08:33:53;;;;;;;2.20;1.20;;;4.40;36.60;;;;;;5051679;28;20176;-70
2022/12/14 08:36:25;;;;;;;3.20;1.77;;;4.50;37.30;;;;;;5051891;28;20402;-70
2022/12/14 08:39:08;;;;;;;3.22;1.45;;;4.50;37.10;;;;;;5051975;28;20179;-70
2022/12/14 08:41:35;;;;;;;3.00;1.60;;;4.20;36.70;;;;;;5051738;28;20697;-69
2022/12/14 08:44:02;;;;;;;4.75;1.40;;;4.00;37.80;;;;;;5033512;28;20180;-70
2022/12/14 08:46:29;;;;;;;2.42;1.40;;;4.00;37.80;;;;;;5051719;28;20198;-69
2022/12/14 08:48:55;;;;;;;2.10;1.30;;;4.10;37.50;;;;;;5051490;28;20200;-70
2022/12/14 08:51:23;;;;;;;2.05;1.10;;;4.10;37.50;;;;;;5051723;28;20639;-70
2022/12/14 08:53:50;;;;;;;2.20;1.30;;;4.00;38.00;;;;;;5051420;28;20185;-70
2022/12/14 08:56:21;;;;;;;2.55;1.35;;;3.90;38.30;;;;;;5050975;28;20179;-70
2022/12/14 08:58:47;;;;;;;2.20;1.30;;;3.90;38.30;;;;;;5051361;28;20222;-70
2022/12/14 09:01:15;;;;;;;3.85;2.13;;;4.40;38.20;;;;;;5051581;28;20203;-71
2022/12/14 09:03:43;;;;;;;2.20;1.33;;;4.40;37.50;;;;;;5051232;28;20597;-69
2022/12/14 09:06:11;;;;;;;2.33;1.33;;;4.50;38.30;;;;;;5051480;28;20625;-69
2022/12/14 09:08:37;;;;;;;2.78;1.63;;;4.50;38.60;;;;;;5051423;28;20250;-70
2022/12/14 09:11:04;;;;;;;2.47;1.53;;;4.40;39.50;;;;;;5051718;28;20549;-71
2022/12/14 09:13:31;;;;;;;2.97;1.45;;;4.50;38.70;;;;;;5051743;28;20932;-71
2022/12/14 09:15:56;;;;;;;2.10;1.30;;;4.20;38.60;;;;;;5051626;28;20207;-71
2022/12/14 09:18:22;;;;;;;3.03;2.13;;;3.90;39.90;;;;;;5051512;28;20226;-71
2022/12/14 09:20:48;;;;;;;2.80;1.77;;;3.80;40.80;;;;;;5050924;28;20515;-70
2022/12/14 09:23:13;;;;;;;2.50;1.70;;;3.00;43.00;;;;;;5051503;28;20172;-70
2022/12/14 09:25:39;;;;;;;2.10;1.20;;;2.80;44.90;;;;;;5051519;28;20183;-71
2022/12/14 09:28:04;;;;;;;2.00;1.10;;;2.50;46.50;;;;;;5050946;28;20187;-71
2022/12/14 09:30:30;;;;;;;3.07;1.67;;;2.80;46.20;;;;;;5051372;28;20168;-71
2022/12/14 09:32:55;;;;;;;2.70;1.63;;;2.90;45.30;;;;;;5050779;28;20251;-71
2022/12/14 09:35:21;;;;;;;2.20;1.30;;;3.30;44.30;;;;;;5051271;28;20302;-71
2022/12/14 09:37:47;;;;;;;2.77;1.97;;;3.10;44.80;;;;;;5051340;28;20194;-71
2022/12/14 09:40:13;;;;;;;2.50;1.50;;;3.10;44.70;;;;;;5051990;28;20225;-70
2022/12/14 09:42:38;;;;;;;2.20;1.27;;;3.60;44.00;;;;;;5050892;28;20255;-71
2022/12/14 09:45:10;;;;;;;2.93;1.87;;;3.90;42.00;;;;;;5050791;28;20422;-71
2022/12/14 09:47:42;;;;;;;3.72;1.95;;;3.90;41.60;;;;;;5051163;28;20227;-71
2022/12/14 09:50:20;;;;;;;2.55;1.63;;;4.30;41.10;;;;;;5051041;28;20249;-71
2022/12/14 09:52:50;;;;;;;4.47;2.60;;;4.40;40.60;;;;;;5050940;28;20274;-72
2022/12/14 09:55:16;;;;;;;2.00;1.10;;;4.60;40.00;;;;;;5051121;28;20177;-71
2022/12/14 09:57:43;;;;;;;4.70;1.80;;;4.70;39.80;;;;;;5050422;28;20212;-71
2022/12/14 10:00:18;;;;;;;3.90;2.10;;;4.30;41.80;;;;;;5050871;28;20271;-71
2022/12/14 10:03:22;;;;;;;2.75;1.48;;;4.10;42.00;;;;;;5055508;28;20642;-71
2022/12/14 10:05:51;;;;;;;2.15;1.35;;;4.40;42.10;;;;;;5050750;28;20187;-71
2022/12/14 10:08:28;;;;;;;2.17;1.35;;;4.50;40.30;;;;;;5050700;28;20196;-71
2022/12/14 10:10:57;;;;;;;3.65;2.17;;;4.70;40.30;;;;;;5050630;28;20180;-71
2022/12/14 10:13:51;;;;;;;2.30;1.48;;;4.80;40.50;;;;;;5050702;28;20211;-71
2022/12/14 10:16:42;;;;;;;3.50;1.63;;;4.90;41.00;;;;;;5033385;28;20250;-71
2022/12/14 10:19:19;;;;;;;2.95;1.60;;;4.70;41.40;;;;;;5050869;28;20176;-71
2022/12/14 10:22:08;;;;;;;2.85;2.08;;;4.90;40.10;;;;;;5052264;28;20666;-71
2022/12/14 10:24:47;;;;;;;1.90;1.20;;;4.90;40.00;;;;;;5054023;28;20196;-71
2022/12/14 10:27:21;;;;;;;4.30;2.42;;;4.80;40.50;;;;;;5053954;28;20273;-71
2022/12/14 10:30:04;;;;;;;2.00;1.23;;;5.00;40.40;;;;;;5053888;28;20188;-71
2022/12/14 10:32:40;;;;;;;2.25;1.42;;;5.00;41.20;;;;;;5053911;28;20171;-71
2022/12/14 10:35:15;;;;;;;3.50;2.22;;;5.10;41.00;;;;;;5053962;28;20564;-71
2022/12/14 10:37:52;;;;;;;3.97;2.60;;;5.00;40.40;;;;;;5053905;28;20546;-71
2022/12/14 10:40:23;;;;;;;1.90;1.30;;;4.80;40.80;;;;;;5053721;28;20176;-71
2022/12/14 10:43:18;;;;;;;1.80;1.10;;;4.90;40.70;;;;;;5053925;28;20266;-71
2022/12/14 10:46:09;;;;;;;2.13;1.52;;;5.00;40.90;;;;;;5053895;28;20523;-71
2022/12/14 10:49:13;;;;;;;2.65;1.63;;;4.90;40.50;;;;;;5035856;28;20200;-71
2022/12/14 10:51:46;;;;;;;3.50;2.25;;;5.10;40.50;;;;;;5035622;28;20183;-71
2022/12/14 10:54:43;;;;;;;4.57;1.70;;;5.30;40.80;;;;;;5053783;28;20164;-71
2022/12/14 10:57:18;;;;;;;1.90;1.20;;;5.50;40.50;;;;;;5053239;28;20207;-71
2022/12/14 10:59:44;;;;;;;2.42;1.58;;;5.50;40.70;;;;;;5053396;28;20176;-70
2022/12/14 11:02:21;;;;;;;4.20;2.80;;;5.50;40.80;;;;;;5053865;28;20193;-71
2022/12/14 11:05:02;;;;;;;4.90;2.65;;;5.50;40.60;;;;;;5053839;28;20647;-71
2022/12/14 11:07:31;;;;;;;4.10;2.20;;;5.60;40.10;;;;;;5053648;28;20195;-68
2022/12/14 11:10:17;;;;;;;2.13;1.52;;;5.60;39.60;;;;;;5054295;28;20195;-71
2022/12/14 11:13:15;;;;;;;4.25;2.65;;;5.40;40.00;;;;;;5053268;28;20549;-71
2022/12/14 11:15:47;;;;;;;3.33;2.60;;;5.30;40.90;;;;;;5053215;28;20168;-71
2022/12/14 11:18:15;;;;;;;4.72;2.83;;;5.40;41.00;;;;;;5053781;28;20659;-71
2022/12/14 11:21:13;;;;;;;2.35;1.83;;;5.60;41.30;;;;;;5053382;28;20577;-71
2022/12/14 11:23:41;;;;;;;2.30;1.65;;;5.70;41.40;;;;;;4972034;28;20187;-70
2022/12/14 11:26:27;;;;;;;2.28;1.77;;;5.60;41.50;;;;;;4972023;28;20183;-71
2022/12/14 11:28:55;;;;;;;2.83;1.90;;;5.70;40.90;;;;;;4971971;28;20254;-70
2022/12/14 11:31:22;;;;;;;2.38;1.60;;;5.50;41.40;;;;;;4971902;28;20584;-70
2022/12/14 11:33:53;;;;;;;1.92;1.33;;;5.60;41.40;;;;;;4970636;28;20191;-71
2022/12/14 11:36:35;;;;;;;2.00;1.33;;;5.90;41.50;;;;;;4971996;28;20174;-70
2022/12/14 11:39:05;;;;;;;2.65;2.10;;;5.90;40.40;;;;;;4972090;28;20514;-71
2022/12/14 11:41:39;;;;;;;3.08;1.73;;;5.90;40.60;;;;;;4971946;28;20179;-71
2022/12/14 11:44:25;;;;;;;3.03;2.28;;;5.60;41.30;;;;;;4974325;28;20255;-71
2022/12/14 11:46:59;;;;;;;2.00;1.30;;;5.70;41.50;;;;;;4974318;28;20205;-71
2022/12/14 11:49:36;;;;;;;3.00;1.60;;;5.90;41.00;;;;;;4974039;28;20572;-71
2022/12/14 11:52:05;;;;;;;1.80;1.20;;;6.30;41.10;;;;;;4972890;28;20175;-72
2022/12/14 11:54:36;;;;;;;2.30;1.92;;;6.30;39.90;;;;;;4972419;28;20266;-71
2022/12/14 11:57:16;;;;;;;2.80;1.33;;;6.30;40.20;;;;;;4971003;28;20272;-71
2022/12/14 12:00:05;;;;;;;2.30;1.42;;;6.40;40.00;;;;;;5001531;28;20187;-71
2022/12/14 12:02:47;;;;;;;1.70;1.10;;;6.50;39.50;;;;;;5052406;28;20187;-71
2022/12/14 12:05:19;;;;;;;2.03;1.30;;;6.30;40.00;;;;;;5052664;28;20263;-69
2022/12/14 12:07:48;;;;;;;4.78;2.28;;;6.30;40.00;;;;;;5052068;28;20245;-71
2022/12/14 12:10:45;;;;;;;2.78;1.92;;;6.30;40.50;;;;;;5052466;28;20206;-70
2022/12/14 12:13:27;;;;;;;1.90;1.30;;;6.30;40.90;;;;;;4971138;28;20191;-71
2022/12/14 12:16:02;;;;;;;3.17;1.40;;;6.10;41.50;;;;;;4971250;28;20182;-71
2022/12/14 12:18:35;;;;;;;1.90;1.40;;;6.20;42.30;;;;;;4971235;28;20682;-71
2022/12/14 12:21:18;;;;;;;2.35;1.65;;;6.40;41.80;;;;;;4971112;28;20175;-71
2022/12/14 12:24:02;;;;;;;4.80;1.95;;;6.40;41.50;;;;;;4970795;28;20205;-71
2022/12/14 12:26:31;;;;;;;3.30;2.33;;;6.30;41.70;;;;;;4970598;28;20194;-71
2022/12/14 12:29:28;;;;;;;3.50;1.70;;;6.40;42.10;;;;;;4970926;28;20207;-70
2022/12/14 12:31:59;;;;;;;2.25;1.75;;;6.50;42.20;;;;;;4970862;28;20700;-70
2022/12/14 12:34:45;;;;;;;2.65;1.80;;;6.50;42.00;;;;;;4970671;28;20331;-71
2022/12/14 12:37:18;;;;;;;2.75;2.05;;;6.40;42.10;;;;;;4970853;28;20286;-71
2022/12/14 12:39:47;;;;;;;3.45;2.67;;;6.50;42.40;;;;;;4970709;28;20194;-71
2022/12/14 12:42:25;;;;;;;9.77;1.90;;;6.70;41.80;;;;;;4970570;28;20182;-71
2022/12/14 12:45:07;;;;;;;2.25;1.73;;;6.60;41.90;;;;;;4970256;28;20175;-71
2022/12/14 12:47:42;;;;;;;2.65;1.85;;;6.50;42.30;;;;;;4970621;28;20198;-69
2022/12/14 12:50:21;;;;;;;2.47;1.58;;;6.50;42.40;;;;;;5051394;28;20214;-71
2022/12/14 12:53:05;;;;;;;4.70;3.85;;;6.40;42.50;;;;;;5051283;28;20247;-71
2022/12/14 12:55:37;;;;;;;1.80;1.40;;;6.50;42.60;;;;;;5051648;28;20183;-70
2022/12/14 12:58:08;;;;;;;4.13;1.85;;;6.50;42.40;;;;;;5051038;28;20243;-69
2022/12/14 13:00:36;;;;;;;2.55;2.00;;;6.10;44.00;;;;;;5051521;28;20149;-71
2022/12/14 13:03:17;;;;;;;2.00;1.45;;;5.70;44.70;;;;;;5051026;28;20172;-71
2022/12/14 13:05:43;;;;;;;2.35;1.40;;;5.20;46.60;;;;;;5051357;28;20545;-71
2022/12/14 13:08:25;;;;;;;3.20;2.22;;;5.30;47.30;;;;;;5051105;28;20191;-70
2022/12/14 13:10:54;;;;;;;4.25;1.90;;;4.90;48.30;;;;;;5051164;28;20195;-69
2022/12/14 13:13:27;;;;;;;2.88;2.17;;;4.30;53.10;;;;;;5051228;28;20183;-70
2022/12/14 13:16:08;;;;;;;4.07;2.15;;;4.40;53.40;;;;;;5051264;28;20172;-69
2022/12/14 13:18:38;;;;;;;3.08;1.98;;;4.60;52.70;;;;;;5051211;28;20156;-71
2022/12/14 13:21:33;;;;;;;3.40;1.70;;;5.00;50.70;;;;;;5051416;28;20175;-71
2022/12/14 13:23:59;;;;;;;1.85;1.35;;;4.80;50.30;;;;;;5051143;28;20172;-69
2022/12/14 13:26:53;;;;;;;3.10;2.03;;;5.10;50.00;;;;;;5050848;28;20200;-69
2022/12/14 13:29:31;;;;;;;4.18;3.05;;;5.70;47.80;;;;;;5051277;28;20195;-72
2022/12/14 13:32:11;;;;;;;2.53;1.92;;;6.00;46.10;;;;;;5051056;28;20168;-72
2022/12/14 13:34:57;;;;;;;4.93;3.25;;;6.50;43.90;;;;;;5051030;28;20160;-71
2022/12/14 13:37:43;;;;;;;5.32;2.85;;;6.60;43.30;;;;;;5051287;28;20832;-71
2022/12/14 13:40:48;;;;;;;1.92;1.50;;;6.50;43.40;;;;;;5051552;28;20546;-71